Thunder radar more information blitzortung!


Radar de pluja more information rain snow radar


Visita la nostra xarxa de llocs de meteo:

Template documentation
and downloads

And another site



No particular awareness of the weather is required.    There are no Weather-warnings

Pagina Historial Weather Underground text

Diari Resum Juliol 1, 2017 Unitats:  Imperial    Mètric   Tant
« Previous Dia
SegĂźent Dia »
Diari Setmana Mensual Anual Personalitzada
  Maxima: Minima: Media:
Temperatura: 79.2 °F 59.4 °F 69.6 °F
Punt de rosada: 49.5 °F 39.4 °F 45.3 °F
Humitat: 49 % 30 % 42 %
Wind Speed: 13.8 mph 0 mph 5 mph
RĂ fegues de vent: 13.8 mph - -
Vent:- - ESE
Pression baro: 30.2 in 30 in -
Precipitacions: 0 in    
Historical Graphs
 
 
Dades de taula per Juliol 1, 2017
Temps Temperatura Punt de rosada Pression baro Vent Wind Speed RĂ fegues de vent Humitat Rainfall Rate (Hourly)
00:04 66.7 °F 43 °F 30 in NNE 4.6 mph 4.6 mph 42 % 0 in
00:05 61.3 °F 40.8 °F 30 in WSW 1 mph 3 mph 47 % 0 in
00:15 61.2 °F 40.8 °F 30 in SW 1 mph 3 mph 47 % 0 in
00:25 61 °F 40.6 °F 30 in WSW 1 mph 2 mph 47 % 0 in
00:35 60.6 °F 40.3 °F 30 in WSW 1 mph 2 mph 47 % 0 in
00:45 60.4 °F 40.1 °F 30 in WSW 3 mph 4 mph 47 % 0 in
00:55 60.4 °F 40.1 °F 30 in WSW 3 mph 4 mph 47 % 0 in
01:05 60.3 °F 39.9 °F 30.1 in WSW 3 mph 4 mph 47 % 0 in
01:15 60.1 °F 39.7 °F 30.1 in WSW 2 mph 3 mph 47 % 0 in
01:25 60.1 °F 39.7 °F 30.1 in SW 1 mph 2 mph 47 % 0 in
01:35 60.3 °F 39.9 °F 30.1 in WSW 2 mph 6 mph 47 % 0 in
01:45 60.3 °F 39.9 °F 30.1 in West 3 mph 4 mph 47 % 0 in
01:55 60.1 °F 39.7 °F 30 in WSW 3 mph 6 mph 47 % 0 in
02:05 60.1 °F 39.7 °F 30 in WSW 6 mph 6 mph 47 % 0 in
02:15 59.9 °F 39.6 °F 30 in WSW 3 mph 7 mph 47 % 0 in
02:25 59.9 °F 40.1 °F 30.1 in WSW 1 mph 4 mph 48 % 0 in
02:35 59.7 °F 39.4 °F 30 in WSW 3 mph 3 mph 47 % 0 in
02:45 59.5 °F 39.7 °F 30 in WSW 2 mph 4 mph 48 % 0 in
02:55 59.4 °F 39.7 °F 30.1 in WSW 2 mph 3 mph 48 % 0 in
03:05 59.4 °F 39.7 °F 30 in West 1 mph 4 mph 48 % 0 in
03:15 59.5 °F 40.3 °F 30 in WNW 1 mph 3 mph 49 % 0 in
03:25 59.9 °F 40.6 °F 30.1 in NW 3 mph 3 mph 49 % 0 in
03:35 60.6 °F 41.4 °F 30.1 in WNW 2 mph 4 mph 49 % 0 in
03:45 61.2 °F 41.7 °F 30.1 in West 2 mph 3 mph 49 % 0 in
03:55 61.5 °F 42.3 °F 30.1 in West 2 mph 4 mph 49 % 0 in
04:05 62.6 °F 42.6 °F 30.1 in West 2 mph 2 mph 48 % 0 in
04:15 63.5 °F 43.3 °F 30.1 in West 3 mph 3 mph 48 % 0 in
04:25 64.2 °F 43.5 °F 30.1 in WNW 2 mph 3 mph 47 % 0 in
04:35 65.7 °F 45 °F 30.1 in WNW 2 mph 4 mph 47 % 0 in
04:45 65.5 °F 44.8 °F 30.1 in WSW 2 mph 4 mph 47 % 0 in
04:55 65.8 °F 44.4 °F 30.1 in WSW 3 mph 3 mph 46 % 0 in
09:57 66.6 °F 44.4 °F 30.1 in West 4.6 mph 4.6 mph 45 % 0 in
10:02 66.6 °F 44.4 °F 30.1 in WSW 6.9 mph 6.9 mph 45 % 0 in
10:03 66.6 °F 44.4 °F 30.1 in WSW 6.9 mph 6.9 mph 45 % 0 in
10:08 66.9 °F 45 °F 30.1 in WSW 4.6 mph 4.6 mph 45 % 0 in
10:13 66.7 °F 44.8 °F 30.1 in NE 5.8 mph 5.8 mph 45 % 0 in
10:18 67.3 °F 45.1 °F 30.1 in ENE 5.8 mph 5.8 mph 45 % 0 in
10:23 66.6 °F 44.4 °F 30.1 in NNE 6.9 mph 6.9 mph 45 % 0 in
10:28 67.1 °F 45 °F 30.1 in NE 6.4 mph 6.4 mph 45 % 0 in
10:33 67.5 °F 45.3 °F 30.1 in ESE 5.8 mph 5.8 mph 45 % 0 in
10:38 68 °F 45.9 °F 30.1 in ENE 4.6 mph 4.6 mph 45 % 0 in
10:43 68.4 °F 45.7 °F 30.1 in SSE 5.8 mph 5.8 mph 44 % 0 in
10:48 68.4 °F 45.7 °F 30.1 in ENE 6.9 mph 6.9 mph 44 % 0 in
10:53 68.4 °F 45.7 °F 30.1 in ENE 5.8 mph 5.8 mph 44 % 0 in
10:58 68.4 °F 45.7 °F 30 in NNE 5.8 mph 5.8 mph 44 % 0 in
11:03 68.2 °F 45.3 °F 30 in ENE 5.9 mph 5.9 mph 44 % 0 in
11:08 68.9 °F 46 °F 30 in ENE 4.5 mph 4.5 mph 44 % 0 in
11:10 68.4 °F 45 °F 30 in NE 5.8 mph 5.8 mph 43 % 0 in
11:15 69.3 °F 46.4 °F 30.1 in East 4.6 mph 4.6 mph 44 % 0 in
11:20 69.6 °F 46.8 °F 30.1 in ENE 5.8 mph 5.8 mph 44 % 0 in
11:25 69.4 °F 46 °F 30.1 in NE 8.1 mph 8.1 mph 43 % 0 in
11:30 70.2 °F 46 °F 30 in NNE 8.1 mph 8.1 mph 42 % 0 in
11:35 70.7 °F 46.6 °F 30 in ENE 5.8 mph 5.8 mph 42 % 0 in
11:40 70.3 °F 46.2 °F 30 in SE 4.6 mph 4.6 mph 42 % 0 in
11:45 70.7 °F 46.6 °F 30.1 in ESE 4.6 mph 4.6 mph 42 % 0 in
11:50 71.6 °F 47.3 °F 30.1 in ESE 4.6 mph 4.6 mph 42 % 0 in
11:55 72 °F 47.7 °F 30.1 in North 4.6 mph 4.6 mph 42 % 0 in
12:00 71.1 °F 46.8 °F 30 in NE 6.2 mph 6.2 mph 42 % 0 in
12:05 71.4 °F 47.1 °F 30 in NNE 3.6 mph 3.6 mph 42 % 0 in
12:10 72.7 °F 47.7 °F 30 in ENE 4.7 mph 4.7 mph 41 % 0 in
12:15 73.6 °F 47.8 °F 30.1 in West 5.8 mph 5.8 mph 40 % 0 in
12:20 73.6 °F 47.8 °F 30.1 in SSE 3.5 mph 3.5 mph 40 % 0 in
12:25 74.5 °F 48.6 °F 30.1 in SSE 3.5 mph 3.5 mph 40 % 0 in
12:30 74.5 °F 47.8 °F 30.1 in ESE 3.5 mph 3.5 mph 39 % 0 in
12:35 74.5 °F 47.8 °F 30.1 in ENE 2.6 mph 2.9 mph 39 % 0 in
12:40 75.4 °F 49.5 °F 30.1 in NE 3.5 mph 3.5 mph 40 % 0 in
12:45 75.6 °F 48.9 °F 30.1 in SSE 4.6 mph 4.6 mph 39 % 0 in
12:50 75.9 °F 49.3 °F 30.1 in SW 4.6 mph 4.6 mph 39 % 0 in
12:55 75.4 °F 48 °F 30.1 in North 2.3 mph 2.3 mph 38 % 0 in
13:00 76.6 °F 49.1 °F 30.1 in East 5.9 mph 5.9 mph 38 % 0 in
13:05 75.9 °F 47.8 °F 30.1 in ESE 5.8 mph 5.8 mph 37 % 0 in
13:10 75.7 °F 48.4 °F 30.1 in NNE 6.9 mph 6.9 mph 38 % 0 in
13:15 75.9 °F 47.8 °F 30.1 in East 4.6 mph 4.6 mph 37 % 0 in
13:20 77.7 °F 48.6 °F 30.1 in SSW 5.4 mph 5.4 mph 36 % 0 in
13:25 77.5 °F 47.7 °F 30.1 in SW 2.3 mph 2.3 mph 35 % 0 in
13:30 77.5 °F 47.7 °F 30.1 in SW 3.5 mph 3.5 mph 35 % 0 in
13:35 79 °F 48.9 °F 30.1 in WNW 3.5 mph 3.5 mph 35 % 0 in
13:40 78.1 °F 47.5 °F 30.1 in WSW 6.9 mph 6.9 mph 34 % 0 in
13:45 77.7 °F 47.1 °F 30.1 in West 3.5 mph 3.5 mph 34 % 0 in
13:50 77.2 °F 45.9 °F 30.1 in South 4.6 mph 4.6 mph 33 % 0 in
13:56 77.7 °F 44.8 °F 30.1 in NE 5.8 mph 5.8 mph 31 % 0 in
14:01 77.5 °F 45.3 °F 30.1 in SW 4.6 mph 4.6 mph 32 % 0 in
14:06 78.1 °F 45 °F 30.1 in ESE 6 mph 6 mph 31 % 0 in
14:11 77.2 °F 45 °F 30.1 in NNE 3.5 mph 3.5 mph 32 % 0 in
14:16 77.9 °F 45.7 °F 30.1 in WNW 4.6 mph 4.6 mph 32 % 0 in
14:21 78.4 °F 45.3 °F 30.1 in East 4.6 mph 4.6 mph 31 % 0 in
14:26 77.9 °F 44.8 °F 30.1 in South 4.6 mph 4.6 mph 31 % 0 in
14:31 78.4 °F 45.3 °F 30 in WNW 3.5 mph 3.5 mph 31 % 0 in
14:36 79.2 °F 45.9 °F 30 in WSW 3.1 mph 3.1 mph 31 % 0 in
14:41 78.8 °F 45.7 °F 30 in WNW 3.5 mph 3.5 mph 31 % 0 in
14:46 78.3 °F 44.2 °F 30 in NNE 3.3 mph 3.3 mph 30 % 0 in
14:51 78.4 °F 44.4 °F 30 in ESE 2.9 mph 2.9 mph 30 % 0 in
14:56 77.7 °F 43.9 °F 30 in ENE 3.6 mph 3.6 mph 30 % 0 in
15:01 77.5 °F 44.4 °F 30 in ESE 5.8 mph 5.8 mph 31 % 0 in
15:06 76.5 °F 44.4 °F 30 in ESE 5.8 mph 5.8 mph 32 % 0 in
15:11 76.6 °F 45.3 °F 30 in ESE 10.5 mph 10.5 mph 33 % 0 in
15:16 75.4 °F 44.2 °F 30.1 in ESE 12.7 mph 12.7 mph 33 % 0 in
15:21 74.8 °F 44.6 °F 30.1 in ENE 10.4 mph 10.4 mph 34 % 0 in
15:26 74.3 °F 45 °F 30.1 in ESE 10.7 mph 10.7 mph 35 % 0 in
15:31 73.9 °F 44.4 °F 30 in East 10.4 mph 10.4 mph 35 % 0 in
15:36 73.9 °F 45.3 °F 30 in ESE 10.5 mph 10.5 mph 36 % 0 in
15:41 74.1 °F 45.5 °F 30 in East 6.9 mph 6.9 mph 36 % 0 in
15:46 74.1 °F 45.5 °F 30.1 in East 6.9 mph 6.9 mph 36 % 0 in
15:51 73.8 °F 45.9 °F 30.1 in SE 8.1 mph 8.1 mph 37 % 0 in
15:56 73.8 °F 45.9 °F 30.1 in ENE 6.2 mph 6.2 mph 37 % 0 in
16:01 73.4 °F 45.5 °F 30.1 in ESE 10.4 mph 10.4 mph 37 % 0 in
16:06 73.2 °F 46 °F 30.1 in ESE 8.1 mph 8.1 mph 38 % 0 in
16:11 74.3 °F 46.2 °F 30.1 in East 6.9 mph 6.9 mph 37 % 0 in
16:16 73.9 °F 46 °F 30.1 in ESE 9.2 mph 9.2 mph 37 % 0 in
16:21 74.3 °F 46.2 °F 30.1 in ESE 8.1 mph 8.1 mph 37 % 0 in
16:26 75.2 °F 47.8 °F 30.1 in East 6.9 mph 6.9 mph 38 % 0 in
16:31 74.5 °F 47.1 °F 30.1 in ENE 10.4 mph 10.4 mph 38 % 0 in
16:36 74.7 °F 46.8 °F 30.1 in SE 8.1 mph 8.1 mph 37 % 0 in
16:41 74.7 °F 46.8 °F 30.1 in ESE 10.7 mph 10.7 mph 37 % 0 in
16:46 73.9 °F 46.8 °F 30.1 in ESE 9.2 mph 9.2 mph 38 % 0 in
16:51 73.6 °F 46.4 °F 30.1 in East 9.2 mph 9.2 mph 38 % 0 in
16:56 73.9 °F 46.8 °F 30.1 in ENE 5.8 mph 5.8 mph 38 % 0 in
17:01 73.8 °F 46.6 °F 30.1 in ESE 8.1 mph 8.1 mph 38 % 0 in
17:06 73.8 °F 46.6 °F 30.1 in ESE 6 mph 6 mph 38 % 0 in
17:11 73.6 °F 46.4 °F 30.1 in ESE 9.2 mph 9.2 mph 38 % 0 in
17:16 73.2 °F 46.8 °F 30.1 in NE 8.1 mph 8.1 mph 39 % 0 in
17:21 73.4 °F 46.2 °F 30.1 in ENE 9.2 mph 9.2 mph 38 % 0 in
17:26 73.2 °F 46.8 °F 30.1 in East 4.6 mph 4.6 mph 39 % 0 in
17:36 72.7 °F 46.2 °F 30.1 in ESE 12.7 mph 12.7 mph 39 % 0 in
17:41 72.3 °F 46 °F 30.1 in SSE 11.5 mph 11.5 mph 39 % 0 in
17:46 72.1 °F 45.9 °F 30.1 in South 5.8 mph 5.8 mph 39 % 0 in
17:51 72 °F 45.7 °F 30.1 in ESE 13.8 mph 13.8 mph 39 % 0 in
17:56 71.8 °F 46.2 °F 30.1 in East 9.2 mph 9.2 mph 40 % 0 in
18:01 71.6 °F 46 °F 30.1 in ESE 8.1 mph 8.1 mph 40 % 0 in
18:06 71.6 °F 46 °F 30.1 in SE 10.4 mph 10.4 mph 40 % 0 in
18:11 71.4 °F 45.9 °F 30.1 in NNE 8.1 mph 8.1 mph 40 % 0 in
18:16 71.4 °F 45.9 °F 30.1 in ESE 9.2 mph 9.2 mph 40 % 0 in
18:21 70.9 °F 45.3 °F 30.1 in NNE 9.8 mph 9.8 mph 40 % 0 in
18:26 70.9 °F 46 °F 30.1 in ENE 6.9 mph 6.9 mph 41 % 0 in
18:31 70.3 °F 45.5 °F 30.1 in ESE 8.1 mph 8.1 mph 41 % 0 in
18:36 70.2 °F 45.3 °F 30.1 in East 5.8 mph 5.8 mph 41 % 0 in
18:41 70.2 °F 45.3 °F 30.1 in East 6.9 mph 6.9 mph 41 % 0 in
18:46 70.2 °F 45.3 °F 30.1 in NNE 8.1 mph 8.1 mph 41 % 0 in
18:51 70.2 °F 45.3 °F 30.1 in WNW 4.6 mph 4.6 mph 41 % 0 in
18:56 70 °F 45.1 °F 30.1 in East 7.6 mph 7.6 mph 41 % 0 in
19:01 69.8 °F 45 °F 30.1 in NE 8.1 mph 8.1 mph 41 % 0 in
19:06 69.6 °F 45.5 °F 30.1 in North 6.9 mph 6.9 mph 42 % 0 in
19:11 69.8 °F 45.7 °F 30.1 in ENE 6.2 mph 6.2 mph 42 % 0 in
19:16 69.4 °F 45.3 °F 30.1 in NE 6.9 mph 6.9 mph 42 % 0 in
19:18 69.4 °F 46 °F 30.1 in NNE 4.6 mph 4.6 mph 43 % 0 in
19:23 69.3 °F 45.9 °F 30.1 in NNE 7.1 mph 7.1 mph 43 % 0 in
19:28 69.3 °F 45.9 °F 30.1 in East 8.1 mph 8.1 mph 43 % 0 in
19:33 69.1 °F 45.7 °F 30.1 in North 5.8 mph 5.8 mph 43 % 0 in
19:38 69.1 °F 45.7 °F 30.1 in ESE 5.8 mph 5.8 mph 43 % 0 in
19:43 68.9 °F 45.5 °F 30.1 in NNE 8.1 mph 8.1 mph 43 % 0 in
19:48 68.7 °F 44.8 °F 30.1 in ENE 6.9 mph 6.9 mph 42 % 0 in
19:53 68.7 °F 45.3 °F 30.1 in NNE 6.9 mph 6.9 mph 43 % 0 in
19:58 68.5 °F 45.1 °F 30.1 in NE 4.9 mph 4.9 mph 43 % 0 in
20:03 68.5 °F 45.1 °F 30.1 in North 4.6 mph 4.6 mph 43 % 0 in
20:08 68.5 °F 45.9 °F 30.1 in ENE 5.8 mph 5.8 mph 44 % 0 in
20:13 68.4 °F 45.7 °F 30.1 in NE 5.8 mph 5.8 mph 44 % 0 in
20:18 68.2 °F 45.3 °F 30.1 in ENE 5.8 mph 5.8 mph 44 % 0 in
20:23 68.2 °F 46 °F 30.1 in East 8.1 mph 8.1 mph 45 % 0 in
20:28 68.4 °F 46.2 °F 30.1 in East 5.8 mph 5.8 mph 45 % 0 in
20:33 68.2 °F 46 °F 30.1 in ENE 4.6 mph 4.6 mph 45 % 0 in
20:38 68 °F 45.9 °F 30.1 in ENE 4.6 mph 4.6 mph 45 % 0 in
20:43 67.8 °F 45.7 °F 30.1 in ENE 5.8 mph 5.8 mph 45 % 0 in
20:48 67.8 °F 46.2 °F 30.1 in ENE 5.8 mph 5.8 mph 46 % 0 in
20:53 67.8 °F 46.2 °F 30.1 in ESE 5.8 mph 5.8 mph 46 % 0 in
20:58 67.8 °F 46.2 °F 30.1 in NNE 4 mph 4 mph 46 % 0 in
21:03 67.6 °F 46 °F 30.1 in ENE 5.8 mph 5.8 mph 46 % 0 in
21:08 67.6 °F 46 °F 30.1 in ENE 3.5 mph 3.5 mph 46 % 0 in
21:13 67.6 °F 46 °F 30.1 in ENE 3.5 mph 3.5 mph 46 % 0 in
21:18 67.5 °F 46.6 °F 30.1 in North 3.5 mph 3.5 mph 47 % 0 in
21:23 67.5 °F 46.6 °F 30.1 in NNE 3.5 mph 3.5 mph 47 % 0 in
21:28 67.3 °F 46.4 °F 30.1 in NE 4.6 mph 4.6 mph 47 % 0 in
21:33 67.3 °F 46.4 °F 30.1 in East 4.6 mph 4.6 mph 47 % 0 in
21:38 67.3 °F 46.4 °F 30.1 in ENE 3.6 mph 3.6 mph 47 % 0 in
21:43 67.1 °F 46.2 °F 30.1 in NE 3.6 mph 3.6 mph 47 % 0 in
21:48 67.1 °F 46.2 °F 30.1 in ENE 3.8 mph 3.8 mph 47 % 0 in
21:53 67.1 °F 46.2 °F 30.1 in North 2.9 mph 2.9 mph 47 % 0 in
21:58 67.1 °F 46.2 °F 30.1 in ESE 4.6 mph 4.6 mph 47 % 0 in
22:03 67.1 °F 46.8 °F 30.1 in ESE 4.6 mph 4.6 mph 48 % 0 in
22:08 67.1 °F 46.2 °F 30.1 in ENE 2.3 mph 2.3 mph 47 % 0 in
22:13 66.9 °F 46.6 °F 30.1 in ENE 3.5 mph 3.5 mph 48 % 0 in
22:18 66.9 °F 46.6 °F 30.1 in East 3.5 mph 3.5 mph 48 % 0 in
22:23 66.9 °F 46.6 °F 30.1 in ENE 3.5 mph 3.5 mph 48 % 0 in
22:28 66.7 °F 46.4 °F 30.1 in East 2.3 mph 2.3 mph 48 % 0 in
22:33 66.7 °F 46.4 °F 30.1 in ENE 2.4 mph 2.4 mph 48 % 0 in
22:38 66.7 °F 46.4 °F 30.1 in East 2.3 mph 2.3 mph 48 % 0 in
22:43 66.7 °F 46.4 °F 30.1 in NE 2.3 mph 2.3 mph 48 % 0 in
22:48 66.6 °F 46.2 °F 30.1 in ENE 2.3 mph 2.3 mph 48 % 0 in
22:53 66.6 °F 46.2 °F 30.1 in NE 2.3 mph 2.3 mph 48 % 0 in
22:58 66.6 °F 46.2 °F 30.1 in NE 1.2 mph   48 % 0 in
23:03 66.6 °F 46.2 °F 30.1 in NE 1.4 mph 1.4 mph 48 % 0 in
23:08 66.6 °F 46.2 °F 30.1 in Calm     48 % 0 in
23:13 66.4 °F 46.6 °F 30.2 in NNE 1.2 mph   49 % 0 in
23:18 66.4 °F 46.6 °F 30.2 in East 2 mph 2 mph 49 % 0 in
23:23 66.4 °F 46.6 °F 30.2 in Calm     49 % 0 in
23:28 66.2 °F 46.6 °F 30.2 in WNW 1.2 mph 1.2 mph 49 % 0 in
23:33 66.2 °F 46.6 °F 30.2 in Calm     49 % 0 in
23:38 66.2 °F 46.6 °F 30.2 in Calm     49 % 0 in
23:43 66.2 °F 46.6 °F 30.2 in Calm     49 % 0 in
23:48 66.2 °F 46.6 °F 30.2 in NNE 1.2 mph   49 % 0 in
23:53 66.2 °F 46.6 °F 30.2 in Calm     49 % 0 in
23:58 66.2 °F 46.6 °F 30.1 in NNE 2.3 mph 2.3 mph 49 % 0 in
Meteo Sesrovires
Elogis d' Weather Underground - 3.5 mb

Guio original per  Jim McMurry - jmcmurry@mwt.net Adaptat per a la plantilla per  Wim van der Kuil - Leuven-Template.eu

Trobareu la nostra informacio del temps tambe a:

Weather Underground

AWEKAS